createdAt,value
2023-05-07T00:00:00.849Z,91.33
2023-05-07T00:00:11.524Z,91.43
2023-05-07T00:00:21.876Z,91.33
2023-05-07T00:00:32.392Z,91.33
2023-05-07T00:00:42.910Z,91.43
2023-05-07T00:00:53.438Z,91.43
2023-05-07T00:01:03.942Z,91.43
2023-05-07T00:01:14.698Z,91.43
2023-05-07T00:01:24.984Z,91.43
2023-05-07T00:01:35.502Z,91.43
2023-05-07T00:01:46.014Z,91.43
2023-05-07T00:01:56.533Z,91.43
2023-05-07T00:02:07.051Z,91.43
2023-05-07T00:02:17.598Z,91.43
2023-05-07T00:02:28.233Z,91.53
2023-05-07T00:02:38.758Z,91.53
2023-05-07T00:02:49.279Z,91.53
2023-05-07T00:02:59.776Z,91.53
2023-05-07T00:03:10.235Z,91.64
2023-05-07T00:03:20.835Z,91.53
2023-05-07T00:03:31.237Z,91.53
2023-05-07T00:03:41.901Z,91.53
2023-05-07T00:03:52.406Z,91.53
2023-05-07T00:04:03.037Z,91.53
2023-05-07T00:04:13.516Z,91.43
2023-05-07T00:04:24.103Z,91.53
2023-05-07T00:04:34.369Z,91.53
2023-05-07T00:04:44.873Z,91.53
2023-05-07T00:04:55.437Z,91.64
2023-05-07T00:05:05.986Z,91.74
2023-05-07T00:05:16.514Z,91.74
2023-05-07T00:05:26.904Z,91.84
2023-05-07T00:05:37.433Z,91.84
2023-05-07T00:05:47.944Z,91.84
2023-05-07T00:05:58.449Z,91.74
2023-05-07T00:06:08.978Z,91.74
2023-05-07T00:06:19.494Z,91.64
2023-05-07T00:06:30.044Z,91.64
2023-05-07T00:06:40.535Z,91.64
2023-05-07T00:06:51.048Z,91.64
2023-05-07T00:07:01.569Z,91.64
2023-05-07T00:07:12.113Z,91.64
2023-05-07T00:07:22.609Z,91.64
2023-05-07T00:07:33.154Z,91.64
2023-05-07T00:07:43.637Z,91.64
2023-05-07T00:07:54.178Z,91.53
2023-05-07T00:08:04.674Z,91.64
2023-05-07T00:08:15.188Z,91.74
2023-05-07T00:08:25.711Z,91.84
2023-05-07T00:08:36.227Z,91.84
2023-05-07T00:08:46.746Z,91.84
2023-05-07T00:08:57.264Z,91.94
2023-05-07T00:09:07.780Z,91.94
2023-05-07T00:09:18.309Z,91.94
2023-05-07T00:09:28.815Z,91.94
2023-05-07T00:09:39.335Z,91.94
2023-05-07T00:09:49.851Z,91.84
2023-05-07T00:10:00.377Z,91.94
2023-05-07T00:10:11.080Z,91.84
2023-05-07T00:10:21.411Z,91.84
2023-05-07T00:10:31.959Z,91.84
2023-05-07T00:10:42.446Z,91.84
2023-05-07T00:10:52.968Z,91.84
2023-05-07T00:11:03.526Z,91.84
2023-05-07T00:11:14.009Z,91.94
2023-05-07T00:11:24.533Z,91.94
2023-05-07T00:11:35.745Z,91.94
2023-05-07T00:11:45.651Z,91.94
2023-05-07T00:11:56.104Z,91.84
2023-05-07T00:12:06.600Z,91.84
2023-05-07T00:12:17.118Z,91.84
2023-05-07T00:12:27.638Z,91.74
2023-05-07T00:12:38.202Z,91.74
2023-05-07T00:12:48.683Z,91.74
2023-05-07T00:12:59.221Z,91.74
2023-05-07T00:13:09.767Z,91.74
2023-05-07T00:13:20.275Z,91.74
2023-05-07T00:13:30.746Z,91.74
2023-05-07T00:13:41.255Z,91.74
2023-05-07T00:13:51.785Z,91.64
2023-05-07T00:14:02.306Z,91.64
2023-05-07T00:14:12.840Z,91.64
2023-05-07T00:14:23.330Z,91.64
2023-05-07T00:14:33.839Z,91.64
2023-05-07T00:14:44.358Z,91.64
2023-05-07T00:14:54.871Z,91.68
2023-05-07T00:15:05.399Z,91.68
2023-05-07T00:15:15.923Z,91.68
2023-05-07T00:15:26.428Z,91.68
2023-05-07T00:15:36.938Z,91.78
2023-05-07T00:15:47.462Z,91.88
2023-05-07T00:15:57.978Z,91.88
2023-05-07T00:16:08.528Z,91.88
2023-05-07T00:16:19.059Z,91.88
2023-05-07T00:16:29.621Z,91.88
2023-05-07T00:16:40.086Z,91.88
2023-05-07T00:16:50.650Z,91.88
2023-05-07T00:17:01.088Z,91.88
2023-05-07T00:17:11.609Z,91.99
2023-05-07T00:17:22.160Z,91.99
2023-05-07T00:17:32.701Z,91.99
2023-05-07T00:17:43.240Z,92.09
2023-05-07T00:17:53.725Z,92.09
2023-05-07T00:18:04.248Z,92.09
2023-05-07T00:18:14.723Z,92.09
2023-05-07T00:18:25.237Z,92.09
2023-05-07T00:18:35.759Z,92.19
2023-05-07T00:18:46.274Z,92.29
2023-05-07T00:18:56.790Z,92.29
2023-05-07T00:19:07.326Z,92.40
2023-05-07T00:19:17.836Z,92.40
2023-05-07T00:19:28.346Z,92.40
2023-05-07T00:19:38.866Z,92.40
2023-05-07T00:19:49.383Z,92.49
2023-05-07T00:19:59.910Z,92.49
2023-05-07T00:20:10.619Z,92.49
2023-05-07T00:20:20.953Z,92.49
2023-05-07T00:20:31.464Z,92.60
2023-05-07T00:20:41.976Z,92.60
2023-05-07T00:20:52.500Z,92.70
2023-05-07T00:21:03.003Z,92.70
2023-05-07T00:21:13.530Z,92.80
2023-05-07T00:21:24.045Z,92.80
2023-05-07T00:21:34.567Z,92.90
2023-05-07T00:21:45.073Z,92.90
2023-05-07T00:21:55.590Z,92.90
2023-05-07T00:22:06.102Z,92.90
2023-05-07T00:22:16.632Z,92.90
2023-05-07T00:22:27.148Z,92.90
2023-05-07T00:22:37.670Z,92.90
2023-05-07T00:22:48.199Z,92.90
2023-05-07T00:22:58.700Z,92.90
2023-05-07T00:23:09.218Z,92.90
2023-05-07T00:23:19.738Z,92.90
2023-05-07T00:23:30.247Z,93.01
2023-05-07T00:23:40.784Z,93.01
2023-05-07T00:23:51.288Z,93.01
2023-05-07T00:24:01.853Z,93.01
2023-05-07T00:24:12.313Z,93.15
2023-05-07T00:24:22.839Z,93.05
2023-05-07T00:24:33.355Z,93.05
2023-05-07T00:24:43.880Z,93.05
2023-05-07T00:24:54.406Z,93.05
2023-05-07T00:25:04.910Z,93.15
2023-05-07T00:25:15.432Z,93.15
2023-05-07T00:25:25.954Z,93.15
2023-05-07T00:25:36.462Z,93.15
2023-05-07T00:25:46.991Z,93.15
2023-05-07T00:25:57.507Z,93.15
2023-05-07T00:26:08.036Z,93.15
2023-05-07T00:26:18.542Z,93.15
2023-05-07T00:26:29.052Z,93.05
2023-05-07T00:26:39.571Z,93.05
2023-05-07T00:26:50.121Z,93.05
2023-05-07T00:27:00.603Z,93.05
2023-05-07T00:27:11.135Z,93.05
2023-05-07T00:27:21.645Z,93.15
2023-05-07T00:27:32.160Z,93.15
2023-05-07T00:27:42.680Z,93.15
2023-05-07T00:27:53.198Z,93.15
2023-05-07T00:28:03.716Z,93.15
2023-05-07T00:28:14.234Z,93.15
2023-05-07T00:28:24.767Z,93.15
2023-05-07T00:28:35.258Z,93.15
2023-05-07T00:28:45.779Z,93.15
2023-05-07T00:28:56.312Z,93.15
2023-05-07T00:29:06.886Z,93.25
2023-05-07T00:29:17.337Z,93.25
2023-05-07T00:29:27.845Z,93.25
2023-05-07T00:29:38.351Z,93.25
2023-05-07T00:29:48.886Z,93.25
2023-05-07T00:29:59.420Z,93.25
2023-05-07T00:30:10.048Z,93.25
2023-05-07T00:30:20.439Z,93.25
2023-05-07T00:30:31.006Z,93.15
2023-05-07T00:30:41.464Z,93.15
2023-05-07T00:30:51.979Z,93.05
2023-05-07T00:31:02.522Z,93.15
2023-05-07T00:31:13.270Z,93.15
2023-05-07T00:31:23.554Z,93.15
2023-05-07T00:31:34.102Z,93.15
2023-05-07T00:31:44.619Z,93.15
2023-05-07T00:31:55.147Z,93.15
2023-05-07T00:32:05.749Z,93.25
2023-05-07T00:32:16.241Z,93.35
2023-05-07T00:32:26.684Z,93.45
2023-05-07T00:32:37.185Z,93.55
2023-05-07T00:32:47.721Z,93.55
2023-05-07T00:32:58.264Z,93.55
2023-05-07T00:33:08.795Z,93.55
2023-05-07T00:33:19.236Z,93.45
2023-05-07T00:33:29.762Z,93.45
2023-05-07T00:33:40.275Z,93.45
2023-05-07T00:33:50.796Z,93.45
2023-05-07T00:34:01.328Z,93.55
2023-05-07T00:34:11.836Z,93.55
2023-05-07T00:34:22.349Z,93.55
2023-05-07T00:34:32.880Z,93.55
2023-05-07T00:34:43.386Z,93.45
2023-05-07T00:34:53.904Z,93.45
2023-05-07T00:35:04.420Z,93.35
2023-05-07T00:35:14.952Z,93.45
2023-05-07T00:35:25.471Z,93.45
2023-05-07T00:35:35.990Z,93.55
2023-05-07T00:35:46.498Z,93.45
2023-05-07T00:35:57.027Z,93.45
2023-05-07T00:36:07.556Z,93.35
2023-05-07T00:36:18.093Z,93.35
2023-05-07T00:36:28.567Z,93.25
2023-05-07T00:36:39.087Z,93.25
2023-05-07T00:36:49.604Z,93.25
2023-05-07T00:37:00.153Z,93.25
2023-05-07T00:37:10.631Z,93.25
2023-05-07T00:37:21.163Z,93.25
2023-05-07T00:37:31.670Z,93.25
2023-05-07T00:37:42.189Z,93.25
2023-05-07T00:37:52.704Z,93.25
2023-05-07T00:38:03.219Z,93.15
2023-05-07T00:38:13.742Z,93.15
2023-05-07T00:38:24.264Z,93.15
2023-05-07T00:38:34.791Z,93.15
2023-05-07T00:38:45.288Z,93.15
2023-05-07T00:38:55.804Z,93.15
2023-05-07T00:39:06.320Z,93.15
2023-05-07T00:39:16.837Z,93.15
2023-05-07T00:39:27.354Z,93.05
2023-05-07T00:39:37.873Z,93.05
2023-05-07T00:39:48.415Z,93.05
2023-05-07T00:39:58.903Z,93.05
2023-05-07T00:40:09.959Z,93.15
2023-05-07T00:40:19.970Z,93.15
2023-05-07T00:40:30.456Z,93.15
2023-05-07T00:40:40.972Z,93.15
2023-05-07T00:40:51.510Z,93.15
2023-05-07T00:41:02.018Z,93.19
2023-05-07T00:41:12.532Z,93.19
2023-05-07T00:41:23.071Z,93.19
2023-05-07T00:41:33.571Z,93.19
2023-05-07T00:41:44.082Z,93.19
2023-05-07T00:41:54.695Z,93.19
2023-05-07T00:42:05.122Z,93.29
2023-05-07T00:42:15.641Z,93.25
2023-05-07T00:42:26.161Z,93.29
2023-05-07T00:42:36.673Z,93.29
2023-05-07T00:42:47.197Z,93.29
2023-05-07T00:42:57.721Z,93.29
2023-05-07T00:43:08.248Z,93.19
2023-05-07T00:43:18.751Z,93.19
2023-05-07T00:43:29.272Z,93.19
2023-05-07T00:43:39.784Z,93.19
2023-05-07T00:43:50.299Z,93.19
2023-05-07T00:44:00.820Z,93.19
2023-05-07T00:44:11.335Z,93.09
2023-05-07T00:44:21.857Z,93.09
2023-05-07T00:44:32.377Z,93.09
2023-05-07T00:44:42.898Z,92.99
2023-05-07T00:44:53.419Z,92.99
2023-05-07T00:45:03.937Z,93.09
2023-05-07T00:45:14.445Z,93.19
2023-05-07T00:45:24.965Z,93.19
2023-05-07T00:45:35.563Z,93.29
2023-05-07T00:45:46.081Z,93.29
2023-05-07T00:45:56.535Z,93.29
2023-05-07T00:46:07.098Z,93.29
2023-05-07T00:46:17.643Z,93.19
2023-05-07T00:46:28.152Z,93.19
2023-05-07T00:46:38.697Z,93.19
2023-05-07T00:46:49.135Z,93.19
2023-05-07T00:46:59.656Z,93.19
2023-05-07T00:47:10.164Z,93.19
2023-05-07T00:47:20.674Z,93.19
2023-05-07T00:47:31.208Z,93.09
2023-05-07T00:47:41.780Z,93.09
2023-05-07T00:47:52.270Z,93.09
2023-05-07T00:48:02.776Z,93.19
2023-05-07T00:48:13.269Z,93.19
2023-05-07T00:48:23.803Z,93.19
2023-05-07T00:48:34.310Z,93.09
2023-05-07T00:48:44.828Z,93.09
2023-05-07T00:48:55.350Z,93.09
2023-05-07T00:49:05.860Z,93.09
2023-05-07T00:49:16.382Z,93.19
2023-05-07T00:49:26.892Z,93.29
2023-05-07T00:49:37.419Z,93.29
2023-05-07T00:49:47.946Z,93.29
2023-05-07T00:49:58.455Z,93.29
2023-05-07T00:50:09.420Z,93.19
2023-05-07T00:50:19.490Z,93.09
2023-05-07T00:50:30.003Z,93.09
2023-05-07T00:50:40.523Z,92.99
2023-05-07T00:50:51.053Z,92.99
2023-05-07T00:51:01.557Z,92.89
2023-05-07T00:51:12.073Z,92.89
2023-05-07T00:51:22.613Z,92.89
2023-05-07T00:51:33.101Z,92.89
2023-05-07T00:51:43.622Z,92.99
2023-05-07T00:51:54.137Z,92.99
2023-05-07T00:52:04.664Z,92.99
2023-05-07T00:52:15.174Z,92.99
2023-05-07T00:52:25.695Z,92.99
2023-05-07T00:52:36.210Z,92.99
2023-05-07T00:52:46.735Z,92.99
2023-05-07T00:52:57.271Z,92.99
2023-05-07T00:53:07.767Z,92.99
2023-05-07T00:53:18.284Z,92.99
2023-05-07T00:53:28.826Z,92.99
2023-05-07T00:53:39.312Z,92.99
2023-05-07T00:53:49.838Z,92.99
2023-05-07T00:54:00.362Z,92.99
2023-05-07T00:54:10.868Z,92.99
2023-05-07T00:54:21.387Z,92.89
2023-05-07T00:54:31.908Z,92.89
2023-05-07T00:54:42.421Z,92.89
2023-05-07T00:54:52.964Z,92.89
2023-05-07T00:55:03.468Z,92.89
2023-05-07T00:55:13.997Z,92.89
2023-05-07T00:55:24.504Z,92.89
2023-05-07T00:55:35.013Z,92.89
2023-05-07T00:55:45.532Z,92.99
2023-05-07T00:55:56.081Z,92.99
2023-05-07T00:56:06.568Z,92.89
2023-05-07T00:56:17.076Z,92.89
2023-05-07T00:56:27.607Z,92.89
2023-05-07T00:56:38.120Z,92.89
2023-05-07T00:56:48.630Z,92.79
2023-05-07T00:56:59.191Z,92.79
2023-05-07T00:57:09.675Z,92.79
2023-05-07T00:57:20.195Z,92.79
2023-05-07T00:57:30.710Z,92.68
2023-05-07T00:57:41.243Z,92.68
2023-05-07T00:57:51.760Z,92.68
2023-05-07T00:58:02.256Z,92.68
2023-05-07T00:58:12.776Z,92.68
2023-05-07T00:58:23.301Z,92.68
2023-05-07T00:58:33.840Z,92.68
2023-05-07T00:58:44.402Z,92.68
2023-05-07T00:58:54.889Z,92.68
2023-05-07T00:59:05.375Z,92.68
2023-05-07T00:59:15.936Z,92.68
2023-05-07T00:59:26.463Z,92.79
2023-05-07T00:59:36.910Z,92.79
2023-05-07T00:59:47.433Z,92.79
2023-05-07T00:59:57.944Z,92.79
2023-05-07T01:00:08.597Z,92.79
2023-05-07T01:00:18.996Z,92.79
2023-05-07T01:00:29.497Z,92.79
2023-05-07T01:00:40.011Z,92.79
2023-05-07T01:00:50.560Z,92.79
2023-05-07T01:01:01.060Z,92.89
2023-05-07T01:01:11.620Z,92.89
2023-05-07T01:01:22.130Z,92.89
2023-05-07T01:01:32.679Z,92.89
2023-05-07T01:01:43.173Z,92.99
2023-05-07T01:01:53.621Z,92.99
2023-05-07T01:02:04.145Z,93.09
2023-05-07T01:02:14.654Z,93.09
2023-05-07T01:02:25.187Z,93.09
2023-05-07T01:02:35.718Z,93.09
2023-05-07T01:02:46.263Z,93.09
2023-05-07T01:02:56.800Z,93.09
2023-05-07T01:03:07.242Z,93.09
2023-05-07T01:03:17.760Z,93.09
2023-05-07T01:03:28.279Z,93.09
2023-05-07T01:03:38.867Z,93.09
2023-05-07T01:03:49.362Z,93.09
2023-05-07T01:03:59.870Z,93.09
2023-05-07T01:04:10.414Z,93.09
2023-05-07T01:04:20.892Z,93.09
2023-05-07T01:04:31.444Z,93.09
2023-05-07T01:04:41.926Z,93.19
2023-05-07T01:04:52.421Z,93.19
2023-05-07T01:05:02.960Z,93.19
2023-05-07T01:05:13.456Z,93.29
2023-05-07T01:05:23.969Z,93.29
2023-05-07T01:05:34.495Z,93.29
2023-05-07T01:05:44.992Z,93.29
2023-05-07T01:05:55.508Z,93.29
2023-05-07T01:06:06.056Z,93.29
2023-05-07T01:06:16.545Z,93.29
2023-05-07T01:06:27.060Z,93.19
2023-05-07T01:06:37.573Z,93.19
2023-05-07T01:06:48.098Z,93.09
2023-05-07T01:06:58.610Z,93.09
2023-05-07T01:07:09.185Z,93.19
2023-05-07T01:07:19.669Z,93.19
2023-05-07T01:07:30.172Z,93.19
2023-05-07T01:07:40.682Z,93.19
2023-05-07T01:07:51.194Z,93.19
2023-05-07T01:08:01.711Z,93.19
2023-05-07T01:08:12.222Z,93.19
2023-05-07T01:08:22.752Z,93.19
2023-05-07T01:08:33.271Z,93.19
2023-05-07T01:08:43.774Z,93.19
2023-05-07T01:08:54.288Z,93.19
2023-05-07T01:09:04.824Z,93.19
2023-05-07T01:09:15.338Z,93.19
2023-05-07T01:09:25.849Z,93.09
2023-05-07T01:09:36.444Z,93.09
2023-05-07T01:09:46.881Z,93.09
2023-05-07T01:09:57.385Z,93.09
2023-05-07T01:10:07.985Z,92.99
2023-05-07T01:10:18.457Z,92.99
2023-05-07T01:10:28.948Z,93.09
2023-05-07T01:10:39.456Z,93.19
2023-05-07T01:10:50.014Z,93.29
2023-05-07T01:11:00.486Z,93.29
2023-05-07T01:11:11.020Z,93.29
2023-05-07T01:11:21.515Z,93.29
2023-05-07T01:11:32.066Z,93.24
2023-05-07T01:11:42.562Z,93.19
2023-05-07T01:11:53.100Z,93.13
2023-05-07T01:12:03.681Z,93.13
2023-05-07T01:12:14.126Z,93.24
2023-05-07T01:12:24.623Z,93.24
2023-05-07T01:12:35.175Z,93.24
2023-05-07T01:12:45.678Z,93.24
2023-05-07T01:12:56.245Z,93.09
2023-05-07T01:13:06.728Z,93.13
2023-05-07T01:13:17.325Z,93.13
2023-05-07T01:13:27.845Z,93.03
2023-05-07T01:13:38.247Z,93.03
2023-05-07T01:13:48.762Z,93.03
2023-05-07T01:13:59.312Z,93.03
2023-05-07T01:14:09.836Z,93.03
2023-05-07T01:14:20.327Z,92.93
2023-05-07T01:14:30.824Z,92.93
2023-05-07T01:14:41.333Z,92.93
2023-05-07T01:14:51.852Z,93.03
2023-05-07T01:15:02.365Z,93.03
2023-05-07T01:15:12.888Z,93.03
2023-05-07T01:15:23.409Z,93.03
2023-05-07T01:15:33.932Z,93.03
2023-05-07T01:15:44.443Z,93.03
2023-05-07T01:15:54.958Z,93.03
2023-05-07T01:16:05.493Z,93.13
2023-05-07T01:16:15.985Z,93.13
2023-05-07T01:16:26.562Z,93.13
2023-05-07T01:16:37.102Z,93.24
2023-05-07T01:16:47.589Z,93.24
2023-05-07T01:16:58.107Z,93.24
2023-05-07T01:17:08.592Z,93.24
2023-05-07T01:17:19.172Z,93.24
2023-05-07T01:17:29.632Z,93.24
2023-05-07T01:17:40.141Z,93.24
2023-05-07T01:17:50.687Z,93.24
2023-05-07T01:18:01.226Z,93.24
2023-05-07T01:18:11.737Z,93.13
2023-05-07T01:18:22.186Z,93.13
2023-05-07T01:18:32.702Z,93.13
2023-05-07T01:18:43.224Z,93.13
2023-05-07T01:18:53.791Z,93.03
2023-05-07T01:19:04.242Z,93.03
2023-05-07T01:19:14.794Z,92.93
2023-05-07T01:19:25.278Z,92.93
2023-05-07T01:19:35.814Z,92.93
2023-05-07T01:19:46.312Z,92.83
2023-05-07T01:19:56.857Z,92.83
2023-05-07T01:20:07.366Z,92.83
2023-05-07T01:20:17.898Z,92.83
2023-05-07T01:20:28.391Z,92.83
2023-05-07T01:20:38.901Z,92.83
2023-05-07T01:20:49.417Z,92.93
2023-05-07T01:20:59.943Z,92.93
2023-05-07T01:21:10.454Z,93.03
2023-05-07T01:21:20.981Z,93.03
2023-05-07T01:21:31.503Z,93.13
2023-05-07T01:21:42.019Z,93.13
2023-05-07T01:21:52.535Z,93.13
2023-05-07T01:22:03.057Z,93.13
2023-05-07T01:22:13.561Z,93.24
2023-05-07T01:22:24.092Z,93.24
2023-05-07T01:22:34.600Z,93.24
2023-05-07T01:22:45.117Z,93.24
2023-05-07T01:22:55.644Z,93.24
2023-05-07T01:23:06.142Z,93.13
2023-05-07T01:23:16.655Z,93.13
2023-05-07T01:23:27.192Z,93.13
2023-05-07T01:23:37.697Z,93.13
2023-05-07T01:23:48.255Z,93.13
2023-05-07T01:23:58.739Z,93.13
2023-05-07T01:24:09.250Z,93.03
2023-05-07T01:24:19.768Z,93.03
2023-05-07T01:24:30.281Z,93.03
2023-05-07T01:24:40.805Z,93.03
2023-05-07T01:24:51.313Z,93.03
2023-05-07T01:25:01.831Z,93.13
2023-05-07T01:25:12.356Z,93.13
2023-05-07T01:25:22.877Z,93.13
2023-05-07T01:25:33.392Z,93.13
2023-05-07T01:25:43.907Z,93.24
2023-05-07T01:25:54.426Z,93.24
2023-05-07T01:26:04.936Z,93.24
2023-05-07T01:26:15.446Z,93.24
2023-05-07T01:26:25.969Z,93.24
2023-05-07T01:26:36.484Z,93.24
2023-05-07T01:26:47.020Z,93.24
2023-05-07T01:26:57.526Z,93.24
2023-05-07T01:27:08.131Z,93.24
2023-05-07T01:27:18.553Z,93.24
2023-05-07T01:27:29.061Z,93.24
2023-05-07T01:27:39.574Z,93.24
2023-05-07T01:27:50.119Z,93.24
2023-05-07T01:28:00.646Z,93.24
2023-05-07T01:28:11.122Z,93.24
2023-05-07T01:28:21.697Z,93.24
2023-05-07T01:28:32.164Z,93.33
2023-05-07T01:28:42.707Z,93.33
2023-05-07T01:28:53.246Z,93.33
2023-05-07T01:29:03.710Z,93.33
2023-05-07T01:29:14.225Z,93.33
2023-05-07T01:29:24.752Z,93.33
2023-05-07T01:29:35.362Z,93.44
2023-05-07T01:29:45.787Z,93.44
2023-05-07T01:29:56.304Z,93.44
2023-05-07T01:30:06.828Z,93.44
2023-05-07T01:30:17.342Z,93.44
2023-05-07T01:30:27.862Z,93.44
2023-05-07T01:30:38.398Z,93.54
2023-05-07T01:30:48.897Z,93.44
2023-05-07T01:30:59.430Z,93.44
2023-05-07T01:31:09.964Z,93.33
2023-05-07T01:31:20.518Z,93.33
2023-05-07T01:31:31.020Z,93.33
2023-05-07T01:31:41.573Z,93.33
2023-05-07T01:31:52.048Z,93.33
2023-05-07T01:32:02.571Z,93.33
2023-05-07T01:32:13.035Z,93.33
2023-05-07T01:32:23.586Z,93.33
2023-05-07T01:32:34.104Z,93.24
2023-05-07T01:32:44.656Z,93.33
2023-05-07T01:32:55.185Z,93.24
2023-05-07T01:33:05.680Z,93.24
2023-05-07T01:33:16.138Z,93.24
2023-05-07T01:33:26.670Z,93.24
2023-05-07T01:33:37.193Z,93.33
2023-05-07T01:33:47.726Z,93.33
2023-05-07T01:33:58.199Z,93.44
2023-05-07T01:34:08.717Z,93.44
2023-05-07T01:34:19.252Z,93.44
2023-05-07T01:34:29.761Z,93.44
2023-05-07T01:34:40.291Z,93.44
2023-05-07T01:34:50.779Z,93.54
2023-05-07T01:35:01.329Z,93.54
2023-05-07T01:35:11.836Z,93.64
2023-05-07T01:35:22.334Z,93.74
2023-05-07T01:35:32.858Z,93.74
2023-05-07T01:35:43.384Z,93.74
2023-05-07T01:35:53.900Z,93.74
2023-05-07T01:36:04.410Z,93.74
2023-05-07T01:36:14.914Z,93.64
2023-05-07T01:36:25.428Z,93.64
2023-05-07T01:36:35.948Z,93.64
2023-05-07T01:36:46.465Z,93.54
2023-05-07T01:36:56.999Z,93.54
2023-05-07T01:37:07.505Z,93.54
2023-05-07T01:37:18.042Z,93.54
2023-05-07T01:37:28.543Z,93.44
2023-05-07T01:37:39.120Z,93.44
2023-05-07T01:37:49.588Z,93.54
2023-05-07T01:38:00.118Z,93.54
2023-05-07T01:38:10.609Z,93.54
2023-05-07T01:38:21.151Z,93.64
2023-05-07T01:38:31.645Z,93.64
2023-05-07T01:38:42.161Z,93.64
2023-05-07T01:38:52.726Z,93.64
2023-05-07T01:39:03.208Z,93.64
2023-05-07T01:39:13.729Z,93.74
2023-05-07T01:39:24.222Z,93.64
2023-05-07T01:39:34.753Z,93.64
2023-05-07T01:39:45.252Z,93.64
2023-05-07T01:39:55.773Z,93.64
2023-05-07T01:40:06.291Z,93.69
2023-05-07T01:40:16.817Z,93.54
2023-05-07T01:40:27.314Z,93.54
2023-05-07T01:40:37.832Z,93.48
2023-05-07T01:40:48.349Z,93.59
2023-05-07T01:40:58.876Z,93.59
2023-05-07T01:41:09.398Z,93.59
2023-05-07T01:41:19.913Z,93.59
2023-05-07T01:41:30.423Z,93.59
2023-05-07T01:41:40.951Z,93.59
2023-05-07T01:41:51.468Z,93.59
2023-05-07T01:42:01.986Z,93.59
2023-05-07T01:42:12.591Z,93.59
2023-05-07T01:42:23.004Z,93.59
2023-05-07T01:42:33.518Z,93.59
2023-05-07T01:42:44.043Z,93.59
2023-05-07T01:42:54.576Z,93.48
2023-05-07T01:43:05.076Z,93.48
2023-05-07T01:43:15.598Z,93.48
2023-05-07T01:43:26.108Z,93.48
2023-05-07T01:43:36.614Z,93.48
2023-05-07T01:43:47.160Z,93.48
2023-05-07T01:43:57.652Z,93.48
2023-05-07T01:44:08.167Z,93.48
2023-05-07T01:44:18.695Z,93.59
2023-05-07T01:44:29.193Z,93.59
2023-05-07T01:44:39.721Z,93.59
2023-05-07T01:44:50.248Z,93.59
2023-05-07T01:45:00.757Z,93.59
2023-05-07T01:45:11.270Z,93.59
2023-05-07T01:45:21.814Z,93.59
2023-05-07T01:45:32.364Z,93.59
2023-05-07T01:45:42.830Z,93.69
2023-05-07T01:45:53.379Z,93.69
2023-05-07T01:46:03.964Z,93.59
2023-05-07T01:46:14.414Z,93.59
2023-05-07T01:46:24.962Z,93.59
2023-05-07T01:46:35.438Z,93.48
2023-05-07T01:46:45.995Z,93.48
2023-05-07T01:46:56.451Z,93.48
2023-05-07T01:47:06.957Z,93.48
2023-05-07T01:47:17.479Z,93.48
2023-05-07T01:47:28.044Z,93.48
2023-05-07T01:47:38.583Z,93.48
2023-05-07T01:47:49.107Z,93.48
2023-05-07T01:47:59.581Z,93.38
2023-05-07T01:48:10.051Z,93.38
2023-05-07T01:48:20.574Z,93.38
2023-05-07T01:48:31.092Z,93.38
2023-05-07T01:48:41.599Z,93.28
2023-05-07T01:48:52.364Z,93.38
2023-05-07T01:49:02.639Z,93.38
2023-05-07T01:49:13.151Z,93.48
2023-05-07T01:49:23.664Z,93.48
2023-05-07T01:49:34.182Z,93.48
2023-05-07T01:49:44.700Z,93.48
2023-05-07T01:49:55.264Z,93.59
2023-05-07T01:50:05.745Z,93.59
2023-05-07T01:50:16.272Z,93.59
2023-05-07T01:50:26.760Z,93.59
2023-05-07T01:50:37.307Z,93.59
2023-05-07T01:50:47.789Z,93.48
2023-05-07T01:50:58.306Z,93.48
2023-05-07T01:51:08.831Z,93.38
2023-05-07T01:51:19.343Z,93.28
2023-05-07T01:51:29.873Z,93.28
2023-05-07T01:51:40.381Z,93.18
2023-05-07T01:51:50.891Z,93.18
2023-05-07T01:52:01.405Z,93.18
2023-05-07T01:52:11.911Z,93.18
2023-05-07T01:52:22.441Z,93.18
2023-05-07T01:52:32.952Z,93.18
2023-05-07T01:52:43.473Z,93.18
2023-05-07T01:52:53.992Z,93.18
2023-05-07T01:53:04.530Z,93.18
2023-05-07T01:53:15.032Z,93.07
2023-05-07T01:53:25.536Z,93.07
2023-05-07T01:53:36.056Z,93.07
2023-05-07T01:53:46.593Z,93.18
2023-05-07T01:53:57.085Z,93.18
2023-05-07T01:54:07.612Z,93.18
2023-05-07T01:54:18.142Z,93.18
2023-05-07T01:54:28.640Z,93.28
2023-05-07T01:54:39.185Z,93.18
2023-05-07T01:54:49.672Z,93.18
2023-05-07T01:55:00.220Z,93.18
2023-05-07T01:55:10.701Z,93.18
2023-05-07T01:55:21.227Z,93.07
2023-05-07T01:55:31.734Z,93.07
2023-05-07T01:55:42.245Z,93.07
2023-05-07T01:55:52.791Z,92.97
2023-05-07T01:56:03.298Z,92.97
2023-05-07T01:56:13.806Z,92.97
2023-05-07T01:56:24.309Z,92.87
2023-05-07T01:56:34.837Z,92.87
2023-05-07T01:56:45.362Z,92.87
2023-05-07T01:56:55.867Z,92.87
2023-05-07T01:57:06.395Z,92.87
2023-05-07T01:57:17.008Z,92.87
2023-05-07T01:57:27.419Z,92.87
2023-05-07T01:57:37.946Z,92.87
2023-05-07T01:57:48.454Z,92.87
2023-05-07T01:57:58.963Z,92.87
2023-05-07T01:58:09.490Z,92.97
2023-05-07T01:58:20.010Z,92.97
2023-05-07T01:58:30.508Z,92.97
2023-05-07T01:58:41.033Z,92.87
2023-05-07T01:58:51.568Z,92.87
2023-05-07T01:59:02.119Z,92.87
2023-05-07T01:59:12.586Z,92.77
2023-05-07T01:59:23.098Z,92.77
2023-05-07T01:59:33.626Z,92.77
2023-05-07T01:59:44.160Z,92.77
2023-05-07T01:59:54.659Z,92.77
2023-05-07T02:00:05.172Z,92.67
2023-05-07T02:00:15.729Z,92.67
2023-05-07T02:00:26.213Z,92.67
2023-05-07T02:00:36.727Z,92.67
2023-05-07T02:00:47.251Z,92.67
2023-05-07T02:00:57.771Z,92.67
2023-05-07T02:01:08.272Z,92.67
2023-05-07T02:01:18.800Z,92.67
2023-05-07T02:01:29.360Z,92.67
2023-05-07T02:01:39.906Z,92.67
2023-05-07T02:01:50.382Z,92.67
2023-05-07T02:02:00.913Z,92.67
2023-05-07T02:02:11.416Z,92.67
2023-05-07T02:02:21.909Z,92.67
2023-05-07T02:02:32.448Z,92.67
2023-05-07T02:02:43.061Z,92.67
2023-05-07T02:02:53.599Z,92.77
2023-05-07T02:03:04.155Z,92.77
2023-05-07T02:03:14.528Z,92.77
2023-05-07T02:03:25.086Z,92.77
2023-05-07T02:03:35.565Z,92.77
2023-05-07T02:03:46.232Z,92.87
2023-05-07T02:03:56.689Z,92.87
2023-05-07T02:04:07.176Z,92.87
2023-05-07T02:04:17.610Z,92.97
2023-05-07T02:04:28.076Z,92.97
2023-05-07T02:04:38.613Z,92.97
2023-05-07T02:04:49.169Z,92.97
2023-05-07T02:04:59.641Z,92.97
2023-05-07T02:05:10.149Z,92.97
2023-05-07T02:05:20.672Z,92.97
2023-05-07T02:05:31.190Z,92.97
2023-05-07T02:05:41.696Z,92.87
2023-05-07T02:05:52.249Z,92.87
2023-05-07T02:06:02.732Z,92.87
2023-05-07T02:06:13.269Z,92.77
2023-05-07T02:06:23.772Z,92.77
2023-05-07T02:06:34.284Z,92.87
2023-05-07T02:06:44.796Z,92.87
2023-05-07T02:06:55.312Z,92.87
2023-05-07T02:07:05.834Z,92.97
2023-05-07T02:07:16.353Z,92.97
2023-05-07T02:07:26.867Z,92.87
2023-05-07T02:07:37.373Z,92.87
2023-05-07T02:07:47.900Z,92.77
2023-05-07T02:07:58.411Z,92.77
2023-05-07T02:08:08.917Z,92.77
2023-05-07T02:08:19.437Z,92.77
2023-05-07T02:08:29.957Z,92.77
2023-05-07T02:08:40.470Z,92.77
2023-05-07T02:08:50.979Z,92.77
2023-05-07T02:09:01.501Z,92.77
2023-05-07T02:09:12.008Z,92.77
2023-05-07T02:09:22.542Z,92.77
2023-05-07T02:09:33.057Z,92.77
2023-05-07T02:09:43.582Z,92.77
2023-05-07T02:09:54.077Z,92.77
2023-05-07T02:10:04.670Z,92.77
2023-05-07T02:10:15.110Z,92.87
2023-05-07T02:10:25.642Z,92.97
2023-05-07T02:10:36.167Z,92.97
2023-05-07T02:10:46.661Z,92.97
2023-05-07T02:10:57.172Z,93.07
2023-05-07T02:11:07.699Z,93.07
2023-05-07T02:11:18.212Z,93.07
2023-05-07T02:11:28.733Z,93.07
2023-05-07T02:11:39.260Z,93.07
2023-05-07T02:11:49.764Z,93.07
2023-05-07T02:12:00.290Z,93.18
2023-05-07T02:12:10.803Z,93.18
2023-05-07T02:12:21.397Z,93.18
2023-05-07T02:12:31.855Z,93.18
2023-05-07T02:12:42.370Z,93.18
2023-05-07T02:12:52.881Z,93.18
2023-05-07T02:13:03.410Z,93.18
2023-05-07T02:13:13.919Z,93.18
2023-05-07T02:13:24.461Z,93.18
2023-05-07T02:13:34.926Z,93.18
2023-05-07T02:13:45.436Z,93.18
2023-05-07T02:13:55.956Z,93.07
2023-05-07T02:14:06.484Z,93.07
2023-05-07T02:14:16.984Z,93.07
2023-05-07T02:14:27.498Z,93.07
2023-05-07T02:14:38.014Z,93.07
2023-05-07T02:14:48.531Z,93.07
2023-05-07T02:14:59.092Z,93.07
2023-05-07T02:15:09.562Z,93.07
2023-05-07T02:15:20.079Z,93.07